Time;durP1;ratioP1;P1;durP2;ratioP2;P2;SDS_P1;SDS_P2;PMS_P1;PMS_P2;Temp;Humidity;BMP_temperature;BMP_pressure;BME280_temperature;BME280_humidity;BME280_pressure;Samples;Min_cycle;Max_cycle;Signal;HPM_P1;HPM_P2
2021/11/23 00:00:45;;;;;;;9.17;8.33;;;;;;;;;;2088910;28;20226;-54
2021/11/23 00:01:45;;;;;;;9.63;8.33;;;;;;;;;;2089461;28;20590;-59
2021/11/23 00:02:46;;;;;;;9.83;7.77;;;;;;;;;;2090631;28;20464;-60
2021/11/23 00:03:46;;;;;;;12.17;8.67;;;;;;;;;;2090442;28;20674;-63
2021/11/23 00:04:46;;;;;;;10.43;8.37;;;;;;;;;;2088339;28;20179;-62
2021/11/23 00:05:48;;;;;;;10.33;8.40;;;;;;;;;;2096723;28;20331;-61
2021/11/23 00:06:48;;;;;;;9.10;7.93;;;;;;;;;;2091436;28;20171;-62
2021/11/23 00:07:48;;;;;;;8.77;7.93;;;;;;;;;;2091522;28;20175;-64
2021/11/23 00:08:49;;;;;;;11.33;8.30;;;;;;;;;;2091020;28;20255;-60
2021/11/23 00:09:49;;;;;;;11.13;8.03;;;;;;;;;;2091683;28;20316;-61
2021/11/23 00:10:49;;;;;;;8.53;7.73;;;;;;;;;;2091504;28;20705;-64
2021/11/23 00:11:49;;;;;;;17.43;10.40;;;;;;;;;;2091098;28;20188;-64
2021/11/23 00:12:50;;;;;;;14.80;9.13;;;;;;;;;;2092248;28;20183;-61
2021/11/23 00:13:50;;;;;;;10.60;9.13;;;;;;;;;;2092492;28;20733;-63
2021/11/23 00:14:50;;;;;;;12.07;9.10;;;;;;;;;;2092627;28;20258;-65
2021/11/23 00:15:51;;;;;;;9.77;8.67;;;;;;;;;;2090977;28;20203;-65
2021/11/23 00:16:51;;;;;;;10.10;8.77;;;;;;;;;;2092554;28;20631;-64
2021/11/23 00:17:51;;;;;;;9.93;8.90;;;;;;;;;;2094221;28;20235;-64
2021/11/23 00:18:52;;;;;;;13.60;8.70;;;;;;;;;;2092910;28;20191;-64
2021/11/23 00:19:52;;;;;;;11.30;9.20;;;;;;;;;;2095009;28;20167;-67
2021/11/23 00:20:52;;;;;;;9.67;8.07;;;;;;;;;;2095598;28;20213;-63
2021/11/23 00:21:52;;;;;;;10.53;8.40;;;;;;;;;;2091063;28;20185;-64
2021/11/23 00:22:54;;;;;;;10.53;8.33;;;;;;;;;;2091216;28;20245;-61
2021/11/23 00:23:55;;;;;;;11.50;8.57;;;;;;;;;;2088516;28;20176;-65
2021/11/23 00:24:55;;;;;;;9.67;8.67;;;;;;;;;;2089487;28;20170;-63
2021/11/23 00:25:55;;;;;;;9.70;8.80;;;;;;;;;;2084626;28;20903;-62
2021/11/23 00:26:55;;;;;;;14.80;8.63;;;;;;;;;;2088076;28;20210;-62
2021/11/23 00:27:56;;;;;;;10.43;8.50;;;;;;;;;;2085176;28;20251;-62
2021/11/23 00:28:56;;;;;;;8.80;7.90;;;;;;;;;;2080783;28;20176;-64
2021/11/23 00:29:57;;;;;;;10.53;7.43;;;;;;;;;;2080232;28;20223;-64
2021/11/23 00:30:58;;;;;;;8.30;7.60;;;;;;;;;;2087711;28;20219;-61
2021/11/23 00:31:58;;;;;;;8.63;7.77;;;;;;;;;;2089207;28;20558;-63
2021/11/23 00:32:59;;;;;;;12.00;8.40;;;;;;;;;;2089259;28;20199;-63
2021/11/23 00:34:00;;;;;;;9.40;7.20;;;;;;;;;;2088922;28;20639;-61
2021/11/23 00:35:00;;;;;;;9.33;7.80;;;;;;;;;;2089152;28;20239;-62
2021/11/23 00:36:01;;;;;;;10.77;7.37;;;;;;;;;;2073006;28;20204;-63
2021/11/23 00:37:02;;;;;;;13.53;8.03;;;;;;;;;;2079355;28;20192;-64
2021/11/23 00:38:02;;;;;;;8.30;7.17;;;;;;;;;;2089921;28;20184;-65
2021/11/23 00:39:03;;;;;;;10.90;7.47;;;;;;;;;;2088748;28;20171;-60
2021/11/23 00:40:04;;;;;;;10.23;7.27;;;;;;;;;;2089130;28;20182;-62
2021/11/23 00:41:04;;;;;;;9.80;7.57;;;;;;;;;;2089033;28;20192;-62
2021/11/23 00:42:04;;;;;;;15.43;9.30;;;;;;;;;;2089501;28;20186;-62
2021/11/23 00:43:05;;;;;;;11.27;7.53;;;;;;;;;;2086994;28;20977;-60
2021/11/23 00:44:05;;;;;;;8.10;7.27;;;;;;;;;;2089424;28;20170;-61
2021/11/23 00:45:06;;;;;;;10.33;7.50;;;;;;;;;;2089385;28;20226;-63
2021/11/23 00:46:06;;;;;;;9.27;7.20;;;;;;;;;;2089182;28;20211;-64
2021/11/23 00:47:07;;;;;;;8.10;7.30;;;;;;;;;;2080423;28;20190;-62
2021/11/23 00:48:09;;;;;;;9.03;6.77;;;;;;;;;;2072961;28;20250;-68
2021/11/23 00:49:10;;;;;;;11.57;6.97;;;;;;;;;;2081242;28;20263;-60
2021/11/23 00:50:11;;;;;;;9.63;7.60;;;;;;;;;;2088998;28;20167;-63
2021/11/23 00:51:12;;;;;;;9.50;7.20;;;;;;;;;;2089160;28;20219;-64
2021/11/23 00:52:12;;;;;;;8.27;6.67;;;;;;;;;;2087324;28;20540;-62
2021/11/23 00:53:13;;;;;;;11.00;6.80;;;;;;;;;;2082204;28;20160;-64
2021/11/23 00:54:13;;;;;;;9.50;7.07;;;;;;;;;;2089345;28;20721;-61
2021/11/23 00:55:14;;;;;;;9.03;6.80;;;;;;;;;;2089985;28;20175;-62
2021/11/23 00:56:15;;;;;;;7.43;6.20;;;;;;;;;;2089223;28;21082;-62
2021/11/23 00:57:15;;;;;;;9.27;7.40;;;;;;;;;;2089871;28;20455;-62
2021/11/23 00:58:16;;;;;;;9.57;7.27;;;;;;;;;;2085263;28;20198;-61
2021/11/23 00:59:16;;;;;;;10.43;6.83;;;;;;;;;;2088885;28;20608;-61
2021/11/23 01:00:16;;;;;;;7.73;6.93;;;;;;;;;;2088641;28;20233;-63
2021/11/23 01:01:17;;;;;;;10.10;6.97;;;;;;;;;;2089512;28;20656;-61
2021/11/23 01:02:17;;;;;;;10.23;7.57;;;;;;;;;;2087034;28;20556;-61
2021/11/23 01:03:18;;;;;;;8.03;7.07;;;;;;;;;;2090150;28;20210;-61
2021/11/23 01:04:18;;;;;;;7.90;6.83;;;;;;;;;;2086738;28;20188;-61
2021/11/23 01:05:18;;;;;;;11.80;7.73;;;;;;;;;;2090426;28;20167;-61
2021/11/23 01:06:19;;;;;;;8.93;7.60;;;;;;;;;;2089262;28;20736;-62
2021/11/23 01:07:19;;;;;;;8.83;7.20;;;;;;;;;;2088795;28;20175;-62
2021/11/23 01:08:19;;;;;;;8.60;7.77;;;;;;;;;;2086061;28;20204;-63
2021/11/23 01:09:20;;;;;;;10.93;7.20;;;;;;;;;;2090195;28;20179;-62
2021/11/23 01:10:21;;;;;;;9.43;7.17;;;;;;;;;;2088629;28;20628;-62
2021/11/23 01:11:21;;;;;;;8.70;7.23;;;;;;;;;;2089743;28;20199;-64
2021/11/23 01:12:22;;;;;;;8.43;6.80;;;;;;;;;;2085250;28;20556;-65
2021/11/23 01:13:22;;;;;;;9.30;7.27;;;;;;;;;;2090267;28;20179;-57
2021/11/23 01:14:23;;;;;;;8.00;6.43;;;;;;;;;;2089506;28;20179;-60
2021/11/23 01:15:23;;;;;;;8.73;7.83;;;;;;;;;;2089923;28;20710;-66
2021/11/23 01:16:24;;;;;;;11.13;8.43;;;;;;;;;;2083771;28;20222;-64
2021/11/23 01:17:24;;;;;;;8.20;7.40;;;;;;;;;;2089375;28;20176;-63
2021/11/23 01:18:24;;;;;;;8.10;7.33;;;;;;;;;;2083624;28;20172;-62
2021/11/23 01:19:26;;;;;;;10.10;8.03;;;;;;;;;;2088115;28;20618;-62
2021/11/23 01:20:26;;;;;;;9.27;7.83;;;;;;;;;;2083832;28;20183;-63
2021/11/23 01:21:27;;;;;;;9.33;7.83;;;;;;;;;;2087986;28;20167;-59
2021/11/23 01:22:27;;;;;;;12.43;7.97;;;;;;;;;;2082965;28;20215;-62
2021/11/23 01:23:28;;;;;;;13.43;8.00;;;;;;;;;;2081044;28;20198;-63
2021/11/23 01:24:28;;;;;;;8.30;7.70;;;;;;;;;;2083893;28;20171;-64
2021/11/23 01:25:29;;;;;;;8.30;7.57;;;;;;;;;;2088550;28;20196;-63
2021/11/23 01:26:29;;;;;;;9.33;7.77;;;;;;;;;;2089987;28;20176;-63
2021/11/23 01:27:29;;;;;;;11.97;7.73;;;;;;;;;;2088505;28;20171;-61
2021/11/23 01:28:30;;;;;;;13.63;8.20;;;;;;;;;;2090131;28;20171;-61
2021/11/23 01:29:31;;;;;;;8.73;7.80;;;;;;;;;;2089347;28;20171;-57
2021/11/23 01:30:31;;;;;;;8.43;7.60;;;;;;;;;;2088595;28;20235;-64
2021/11/23 01:31:31;;;;;;;7.77;6.97;;;;;;;;;;2089317;28;20668;-62
2021/11/23 01:32:32;;;;;;;8.20;7.37;;;;;;;;;;2090324;28;20199;-62
2021/11/23 01:33:32;;;;;;;8.23;7.40;;;;;;;;;;2087438;28;20210;-62
2021/11/23 01:34:33;;;;;;;11.40;7.77;;;;;;;;;;2089785;28;20707;-63
2021/11/23 01:35:33;;;;;;;10.40;7.80;;;;;;;;;;2089022;28;20206;-64
2021/11/23 01:36:34;;;;;;;12.23;8.27;;;;;;;;;;2090241;28;20190;-62
2021/11/23 01:37:34;;;;;;;8.60;7.60;;;;;;;;;;2088903;28;20210;-62
2021/11/23 01:38:35;;;;;;;10.87;7.37;;;;;;;;;;2090340;28;20179;-64
2021/11/23 01:39:35;;;;;;;10.50;8.40;;;;;;;;;;2089266;28;20191;-64
2021/11/23 01:40:36;;;;;;;11.20;7.77;;;;;;;;;;2089770;28;20584;-63
2021/11/23 01:41:36;;;;;;;8.50;7.33;;;;;;;;;;2084920;28;20389;-63
2021/11/23 01:42:37;;;;;;;9.93;8.00;;;;;;;;;;2086694;28;20207;-64
2021/11/23 01:43:39;;;;;;;11.33;8.67;;;;;;;;;;2086259;28;20547;-64
2021/11/23 01:44:40;;;;;;;10.50;7.70;;;;;;;;;;2089261;28;20280;-63
2021/11/23 01:45:41;;;;;;;8.20;7.40;;;;;;;;;;2079936;28;20226;-61
2021/11/23 01:46:41;;;;;;;9.03;8.13;;;;;;;;;;2088255;28;20180;-61
2021/11/23 01:47:41;;;;;;;9.17;8.10;;;;;;;;;;2086378;28;20164;-63
2021/11/23 01:48:42;;;;;;;9.03;8.00;;;;;;;;;;2086152;28;20180;-63
2021/11/23 01:49:42;;;;;;;10.60;7.57;;;;;;;;;;2085239;28;20250;-65
2021/11/23 01:50:42;;;;;;;9.07;8.13;;;;;;;;;;2089588;28;20667;-62
2021/11/23 01:51:43;;;;;;;17.07;8.40;;;;;;;;;;2088688;28;20172;-63
2021/11/23 01:52:44;;;;;;;9.10;8.20;;;;;;;;;;2087344;28;20163;-63
2021/11/23 01:53:45;;;;;;;8.57;7.83;;;;;;;;;;2086093;28;20167;-64
2021/11/23 01:54:45;;;;;;;9.27;7.37;;;;;;;;;;2086925;28;20203;-61
2021/11/23 01:55:45;;;;;;;8.40;7.60;;;;;;;;;;2077295;28;20652;-64
2021/11/23 01:56:46;;;;;;;16.57;8.67;;;;;;;;;;2088761;28;20545;-64
2021/11/23 01:57:46;;;;;;;9.10;8.20;;;;;;;;;;2089877;28;20201;-65
2021/11/23 01:58:47;;;;;;;9.07;7.90;;;;;;;;;;2088387;28;20567;-65
2021/11/23 01:59:47;;;;;;;9.40;8.30;;;;;;;;;;2088549;28;20722;-64
2021/11/23 02:00:48;;;;;;;10.97;8.10;;;;;;;;;;2088048;28;20808;-64
2021/11/23 02:01:48;;;;;;;8.53;7.73;;;;;;;;;;2088348;28;20175;-65
2021/11/23 02:02:48;;;;;;;8.17;7.43;;;;;;;;;;2089885;28;20241;-66
2021/11/23 02:03:49;;;;;;;8.70;7.90;;;;;;;;;;2087872;28;20223;-65
2021/11/23 02:04:49;;;;;;;7.87;7.07;;;;;;;;;;2088446;28;20198;-62
2021/11/23 02:05:49;;;;;;;8.43;7.63;;;;;;;;;;2080115;28;20164;-63
2021/11/23 02:06:49;;;;;;;8.13;7.33;;;;;;;;;;2089041;28;20164;-62
2021/11/23 02:07:50;;;;;;;10.33;7.93;;;;;;;;;;2089409;28;20620;-65
2021/11/23 02:08:50;;;;;;;12.63;7.70;;;;;;;;;;2088812;28;20167;-61
2021/11/23 02:09:50;;;;;;;9.83;7.93;;;;;;;;;;2089847;28;20168;-62
2021/11/23 02:10:51;;;;;;;10.40;8.33;;;;;;;;;;2089471;28;20217;-63
2021/11/23 02:11:52;;;;;;;11.47;8.17;;;;;;;;;;2089822;28;20164;-63
2021/11/23 02:12:52;;;;;;;13.00;7.80;;;;;;;;;;2089354;28;20593;-62
2021/11/23 02:13:53;;;;;;;9.73;7.90;;;;;;;;;;2090326;28;20226;-64
2021/11/23 02:14:54;;;;;;;9.17;6.93;;;;;;;;;;2089891;28;20553;-63
2021/11/23 02:15:56;;;;;;;11.67;7.97;;;;;;;;;;2090034;28;20176;-62
2021/11/23 02:16:57;;;;;;;8.90;7.77;;;;;;;;;;2089627;28;20179;-63
2021/11/23 02:17:57;;;;;;;8.07;7.27;;;;;;;;;;2090189;28;20168;-63
2021/11/23 02:18:57;;;;;;;9.03;7.57;;;;;;;;;;2085318;28;20183;-65
2021/11/23 02:19:58;;;;;;;11.33;7.37;;;;;;;;;;2089946;28;20159;-64
2021/11/23 02:20:58;;;;;;;8.13;7.37;;;;;;;;;;2089149;28;20605;-64
2021/11/23 02:21:59;;;;;;;11.40;7.83;;;;;;;;;;2089807;28;20222;-63
2021/11/23 02:22:59;;;;;;;9.37;7.03;;;;;;;;;;2089478;28;20678;-62
2021/11/23 02:24:00;;;;;;;10.77;7.77;;;;;;;;;;2089790;28;20167;-64
2021/11/23 02:25:00;;;;;;;11.77;8.30;;;;;;;;;;2089698;28;20577;-61
2021/11/23 02:26:01;;;;;;;9.50;7.53;;;;;;;;;;2089252;28;20250;-64
2021/11/23 02:27:02;;;;;;;9.17;7.57;;;;;;;;;;2080773;28;20267;-64
2021/11/23 02:28:06;;;;;;;7.43;6.80;;;;;;;;;;2089054;28;20663;-64
2021/11/23 02:29:06;;;;;;;8.17;7.47;;;;;;;;;;2089537;28;20167;-65
2021/11/23 02:30:08;;;;;;;8.80;7.40;;;;;;;;;;2089802;28;20714;-64
2021/11/23 02:31:09;;;;;;;8.87;8.07;;;;;;;;;;2089243;28;20590;-65
2021/11/23 02:32:09;;;;;;;10.80;8.10;;;;;;;;;;2089240;28;20171;-63
2021/11/23 02:33:09;;;;;;;11.77;7.47;;;;;;;;;;2089162;28;20301;-63
2021/11/23 02:34:11;;;;;;;9.80;7.67;;;;;;;;;;2089267;28;20199;-63
2021/11/23 02:35:12;;;;;;;9.53;7.90;;;;;;;;;;2089460;28;20190;-62
2021/11/23 02:36:13;;;;;;;8.60;7.70;;;;;;;;;;2080930;28;20180;-64
2021/11/23 02:37:13;;;;;;;11.17;7.60;;;;;;;;;;2089191;28;20175;-60
2021/11/23 02:38:13;;;;;;;11.50;8.13;;;;;;;;;;2089731;28;20199;-63
2021/11/23 02:39:14;;;;;;;9.60;8.60;;;;;;;;;;2089895;28;20176;-65
2021/11/23 02:40:15;;;;;;;15.93;8.07;;;;;;;;;;2089371;28;20194;-65
2021/11/23 02:41:16;;;;;;;10.27;8.03;;;;;;;;;;2089276;28;20735;-61
2021/11/23 02:42:16;;;;;;;10.03;8.13;;;;;;;;;;2088738;28;20226;-64
2021/11/23 02:43:17;;;;;;;9.67;8.17;;;;;;;;;;2089160;28;20175;-65
2021/11/23 02:44:17;;;;;;;12.57;8.13;;;;;;;;;;2089708;28;20167;-62
2021/11/23 02:45:22;;;;;;;9.43;7.77;;;;;;;;;;2089886;28;20242;-62
2021/11/23 02:46:22;;;;;;;8.33;7.53;;;;;;;;;;2089869;28;20172;-63
2021/11/23 02:47:26;;;;;;;8.73;7.67;;;;;;;;;;2089753;28;20186;-62
2021/11/23 02:48:26;;;;;;;8.63;7.83;;;;;;;;;;2089082;28;20183;-62
2021/11/23 02:49:26;;;;;;;11.67;8.23;;;;;;;;;;2089643;28;20176;-62
2021/11/23 02:50:27;;;;;;;11.97;7.77;;;;;;;;;;2089312;28;20176;-62
2021/11/23 02:51:29;;;;;;;10.07;8.17;;;;;;;;;;2089646;28;20180;-64
2021/11/23 02:52:29;;;;;;;8.63;7.83;;;;;;;;;;2089132;28;20171;-63
2021/11/23 02:53:30;;;;;;;9.30;8.13;;;;;;;;;;2080912;28;20632;-64
2021/11/23 02:54:30;;;;;;;10.00;7.70;;;;;;;;;;2088977;28;20266;-64
2021/11/23 02:55:33;;;;;;;10.20;8.50;;;;;;;;;;2086924;28;20172;-63
2021/11/23 02:56:34;;;;;;;8.90;8.00;;;;;;;;;;2089495;28;20671;-62
2021/11/23 02:57:35;;;;;;;10.00;8.10;;;;;;;;;;2089808;28;20278;-61
2021/11/23 02:58:35;;;;;;;9.77;8.87;;;;;;;;;;2090209;28;20179;-63
2021/11/23 02:59:36;;;;;;;12.73;8.60;;;;;;;;;;2089616;28;20270;-61
2021/11/23 03:00:38;;;;;;;12.37;9.60;;;;;;;;;;2089550;28;20175;-63
2021/11/23 03:01:38;;;;;;;9.10;8.20;;;;;;;;;;2089964;28;20175;-62
2021/11/23 03:02:39;;;;;;;10.17;9.13;;;;;;;;;;2090686;28;20252;-64
2021/11/23 03:03:39;;;;;;;10.83;9.73;;;;;;;;;;2088770;28;20811;-61
2021/11/23 03:04:39;;;;;;;10.23;9.27;;;;;;;;;;2089567;28;20187;-64
2021/11/23 03:05:41;;;;;;;13.13;9.97;;;;;;;;;;2090809;28;20168;-63
2021/11/23 03:06:43;;;;;;;13.00;9.40;;;;;;;;;;2090268;28;20553;-62
2021/11/23 03:07:43;;;;;;;9.93;8.90;;;;;;;;;;2088861;28;20183;-64
2021/11/23 03:08:45;;;;;;;10.47;9.40;;;;;;;;;;2089667;28;20167;-64
2021/11/23 03:09:45;;;;;;;13.27;9.53;;;;;;;;;;2089396;28;20226;-63
2021/11/23 03:10:45;;;;;;;10.67;9.47;;;;;;;;;;2090744;28;20546;-57
2021/11/23 03:11:46;;;;;;;12.03;10.37;;;;;;;;;;2090143;28;20234;-64
2021/11/23 03:12:47;;;;;;;11.60;10.33;;;;;;;;;;2090609;28;20179;-62
2021/11/23 03:13:47;;;;;;;12.17;9.73;;;;;;;;;;2089783;28;20189;-61
2021/11/23 03:14:48;;;;;;;11.27;9.73;;;;;;;;;;2089636;28;20686;-62
2021/11/23 03:15:49;;;;;;;11.53;10.43;;;;;;;;;;2087698;28;20714;-64
2021/11/23 03:16:49;;;;;;;12.47;10.27;;;;;;;;;;2090385;28;20174;-64
2021/11/23 03:17:49;;;;;;;11.63;10.43;;;;;;;;;;2090961;28;20191;-64
2021/11/23 03:18:49;;;;;;;13.40;11.10;;;;;;;;;;2090343;28;20262;-64
2021/11/23 03:19:50;;;;;;;12.93;11.63;;;;;;;;;;2089818;28;20179;-63
2021/11/23 03:20:51;;;;;;;13.17;11.77;;;;;;;;;;2089547;28;20745;-65
2021/11/23 03:21:51;;;;;;;18.13;12.20;;;;;;;;;;2088739;28;20187;-65
2021/11/23 03:22:53;;;;;;;13.47;12.10;;;;;;;;;;2090580;28;20192;-64
2021/11/23 03:23:53;;;;;;;18.33;12.87;;;;;;;;;;2096182;28;20175;-64
2021/11/23 03:24:53;;;;;;;13.57;12.20;;;;;;;;;;2097910;28;20175;-64
2021/11/23 03:25:54;;;;;;;14.07;12.57;;;;;;;;;;2089360;28;20210;-64
2021/11/23 03:26:54;;;;;;;16.37;13.10;;;;;;;;;;2089657;28;20163;-65
2021/11/23 03:27:55;;;;;;;18.13;13.47;;;;;;;;;;2089487;28;20267;-64
2021/11/23 03:28:55;;;;;;;15.57;12.97;;;;;;;;;;2088425;28;20196;-63
2021/11/23 03:29:56;;;;;;;14.60;12.97;;;;;;;;;;2086150;28;20180;-66
2021/11/23 03:30:56;;;;;;;16.17;13.60;;;;;;;;;;2088070;28;20268;-66
2021/11/23 03:31:57;;;;;;;15.63;13.33;;;;;;;;;;2085494;28;20173;-64
2021/11/23 03:32:58;;;;;;;15.53;13.90;;;;;;;;;;2088993;28;20257;-64
2021/11/23 03:33:58;;;;;;;19.43;13.73;;;;;;;;;;2092041;28;20182;-67
2021/11/23 03:34:58;;;;;;;16.63;14.93;;;;;;;;;;2089635;28;20175;-66
2021/11/23 03:35:59;;;;;;;18.60;16.70;;;;;;;;;;2089930;28;20192;-66
2021/11/23 03:36:59;;;;;;;17.23;15.00;;;;;;;;;;2090468;28;20537;-64
2021/11/23 03:38:00;;;;;;;16.83;15.03;;;;;;;;;;2084321;28;20684;-66
2021/11/23 03:39:00;;;;;;;16.80;15.13;;;;;;;;;;2089274;28;20190;-65
2021/11/23 03:40:01;;;;;;;22.33;15.40;;;;;;;;;;2090576;28;20187;-65
2021/11/23 03:41:01;;;;;;;19.40;15.47;;;;;;;;;;2090171;28;20227;-65
2021/11/23 03:42:02;;;;;;;22.57;16.77;;;;;;;;;;2090702;28;20247;-65
2021/11/23 03:43:03;;;;;;;23.77;17.23;;;;;;;;;;2090608;28;20344;-62
2021/11/23 03:44:04;;;;;;;21.23;17.30;;;;;;;;;;2090094;28;20192;-64
2021/11/23 03:45:05;;;;;;;18.60;16.60;;;;;;;;;;2090080;28;20691;-66
2021/11/23 03:46:05;;;;;;;21.33;17.13;;;;;;;;;;2090173;28;20182;-64
2021/11/23 03:47:07;;;;;;;20.37;18.20;;;;;;;;;;2089961;28;20168;-64
2021/11/23 03:48:08;;;;;;;21.67;17.47;;;;;;;;;;2090045;28;20168;-65
2021/11/23 03:49:08;;;;;;;20.93;18.17;;;;;;;;;;2083468;28;20176;-63
2021/11/23 03:50:09;;;;;;;22.23;19.03;;;;;;;;;;2090856;28;20183;-65
2021/11/23 03:51:10;;;;;;;21.10;17.70;;;;;;;;;;2082271;28;20214;-65
2021/11/23 03:52:10;;;;;;;23.60;18.97;;;;;;;;;;2085842;28;20683;-66
2021/11/23 03:53:11;;;;;;;24.30;19.23;;;;;;;;;;2091847;28;20179;-65
2021/11/23 03:54:11;;;;;;;24.67;20.83;;;;;;;;;;2090692;28;20191;-66
2021/11/23 03:55:14;;;;;;;22.00;19.67;;;;;;;;;;2088467;28;20192;-65
2021/11/23 03:56:15;;;;;;;23.03;19.57;;;;;;;;;;2092390;28;20225;-64
2021/11/23 03:57:15;;;;;;;25.30;20.90;;;;;;;;;;2097836;28;20618;-67
2021/11/23 03:58:16;;;;;;;24.40;21.20;;;;;;;;;;2091085;28;20180;-65
2021/11/23 03:59:16;;;;;;;25.83;21.17;;;;;;;;;;2090685;28;20266;-66
2021/11/23 04:00:17;;;;;;;24.17;21.23;;;;;;;;;;2089857;28;20219;-65
2021/11/23 04:01:18;;;;;;;23.87;20.70;;;;;;;;;;2089412;28;20171;-64
2021/11/23 04:02:20;;;;;;;25.27;20.33;;;;;;;;;;2089903;28;20223;-63
2021/11/23 04:03:20;;;;;;;25.83;21.40;;;;;;;;;;2089879;28;20175;-65
2021/11/23 04:04:21;;;;;;;22.47;20.13;;;;;;;;;;2090582;28;20686;-65
2021/11/23 04:05:21;;;;;;;26.87;20.03;;;;;;;;;;2090502;28;20176;-65
2021/11/23 04:06:22;;;;;;;26.47;19.47;;;;;;;;;;2090043;28;20164;-64
2021/11/23 04:07:22;;;;;;;28.40;21.33;;;;;;;;;;2090555;28;20651;-65
2021/11/23 04:08:23;;;;;;;23.00;20.47;;;;;;;;;;2090024;28;20164;-65
2021/11/23 04:09:24;;;;;;;25.07;21.33;;;;;;;;;;2089655;28;20180;-66
2021/11/23 04:10:25;;;;;;;26.73;21.50;;;;;;;;;;2090370;28;20506;-63
2021/11/23 04:11:26;;;;;;;22.00;19.70;;;;;;;;;;2088368;28;20649;-65
2021/11/23 04:12:26;;;;;;;25.53;20.77;;;;;;;;;;2082021;28;20183;-68
2021/11/23 04:13:26;;;;;;;24.13;21.50;;;;;;;;;;2082253;28;20192;-66
2021/11/23 04:14:27;;;;;;;25.90;22.07;;;;;;;;;;2089468;28;20548;-66
2021/11/23 04:15:27;;;;;;;23.63;21.10;;;;;;;;;;2090624;28;20662;-65
2021/11/23 04:16:27;;;;;;;25.93;21.60;;;;;;;;;;2090523;28;21807;-65
2021/11/23 04:17:28;;;;;;;24.97;22.30;;;;;;;;;;2090644;28;20211;-65
2021/11/23 04:18:28;;;;;;;25.73;21.00;;;;;;;;;;2089743;28;20222;-65
2021/11/23 04:19:28;;;;;;;28.30;23.07;;;;;;;;;;2081939;28;20174;-66
2021/11/23 04:20:29;;;;;;;24.77;22.17;;;;;;;;;;2089805;28;20175;-65
2021/11/23 04:21:29;;;;;;;25.43;22.90;;;;;;;;;;2091042;28;20207;-65
2021/11/23 04:22:29;;;;;;;27.67;22.40;;;;;;;;;;2086969;28;20294;-65
2021/11/23 04:23:30;;;;;;;25.27;22.40;;;;;;;;;;2090569;28;20647;-65
2021/11/23 04:24:30;;;;;;;27.23;23.50;;;;;;;;;;2090290;28;20269;-64
2021/11/23 04:25:31;;;;;;;26.33;23.13;;;;;;;;;;2087699;28;20187;-65
2021/11/23 04:26:31;;;;;;;26.57;23.67;;;;;;;;;;2091014;28;20573;-66
2021/11/23 04:27:33;;;;;;;26.70;23.50;;;;;;;;;;2091319;28;20188;-63
2021/11/23 04:28:33;;;;;;;26.67;23.90;;;;;;;;;;2089802;28;20183;-66
2021/11/23 04:29:33;;;;;;;27.00;23.53;;;;;;;;;;2082329;28;20260;-65
2021/11/23 04:30:34;;;;;;;26.93;22.57;;;;;;;;;;2081173;28;20706;-65
2021/11/23 04:31:34;;;;;;;27.07;22.40;;;;;;;;;;2089863;28;20171;-65
2021/11/23 04:32:35;;;;;;;26.33;22.30;;;;;;;;;;2091316;28;20265;-65
2021/11/23 04:33:35;;;;;;;24.87;22.23;;;;;;;;;;2088935;28;20232;-65
2021/11/23 04:34:36;;;;;;;28.63;23.87;;;;;;;;;;2086793;28;20204;-66
2021/11/23 04:35:36;;;;;;;27.80;23.90;;;;;;;;;;2090581;28;20183;-66
2021/11/23 04:36:36;;;;;;;27.67;23.10;;;;;;;;;;2088394;28;20188;-66
2021/11/23 04:37:37;;;;;;;27.37;24.03;;;;;;;;;;2087264;28;20167;-66
2021/11/23 04:38:37;;;;;;;29.60;24.20;;;;;;;;;;2090938;28;20244;-66
2021/11/23 04:39:38;;;;;;;28.73;23.83;;;;;;;;;;2090205;28;20182;-67
2021/11/23 04:40:38;;;;;;;25.17;22.50;;;;;;;;;;2090438;28;20214;-64
2021/11/23 04:41:39;;;;;;;28.80;23.80;;;;;;;;;;2090599;28;20182;-64
2021/11/23 04:42:40;;;;;;;30.13;24.37;;;;;;;;;;2090677;28;20238;-64
2021/11/23 04:43:40;;;;;;;27.57;24.17;;;;;;;;;;2089573;28;20180;-65
2021/11/23 04:44:41;;;;;;;27.80;24.80;;;;;;;;;;2089570;28;20172;-66
2021/11/23 04:45:41;;;;;;;28.43;25.40;;;;;;;;;;2087775;28;20179;-65
2021/11/23 04:46:42;;;;;;;26.97;23.97;;;;;;;;;;2086735;28;20167;-65
2021/11/23 04:47:43;;;;;;;26.07;23.17;;;;;;;;;;2089384;28;20163;-65
2021/11/23 04:48:43;;;;;;;28.43;24.03;;;;;;;;;;2089331;28;20180;-64
2021/11/23 04:49:44;;;;;;;32.40;25.93;;;;;;;;;;2079417;28;20191;-65
2021/11/23 04:50:44;;;;;;;30.27;23.77;;;;;;;;;;2080300;28;20207;-65
2021/11/23 04:51:45;;;;;;;27.43;24.23;;;;;;;;;;2090387;23;20259;-53
2021/11/23 04:52:45;;;;;;;27.10;23.57;;;;;;;;;;2080466;28;20270;-56
2021/11/23 04:53:46;;;;;;;27.87;24.73;;;;;;;;;;2080771;28;20239;-55
2021/11/23 04:54:46;;;;;;;26.73;23.87;;;;;;;;;;2080282;28;20628;-58
2021/11/23 04:55:46;;;;;;;28.80;25.70;;;;;;;;;;2081337;28;20168;-58
2021/11/23 04:56:46;;;;;;;27.33;24.50;;;;;;;;;;2080192;28;20227;-55
2021/11/23 04:57:48;;;;;;;30.50;25.40;;;;;;;;;;2080356;28;20580;-57
2021/11/23 04:58:48;;;;;;;28.20;25.20;;;;;;;;;;2079344;28;20172;-58
2021/11/23 04:59:49;;;;;;;29.20;24.60;;;;;;;;;;2078305;28;20179;-55
2021/11/23 05:00:49;;;;;;;29.40;25.30;;;;;;;;;;2079557;28;20195;-56
2021/11/23 05:01:50;;;;;;;28.30;24.73;;;;;;;;;;2081009;28;20207;-57
2021/11/23 05:02:50;;;;;;;27.67;24.70;;;;;;;;;;2081314;28;20234;-55
2021/11/23 05:03:53;;;;;;;26.40;22.90;;;;;;;;;;2083670;28;20164;-59
2021/11/23 05:04:53;;;;;;;26.90;24.00;;;;;;;;;;2082351;28;20227;-58
2021/11/23 05:05:54;;;;;;;27.43;24.57;;;;;;;;;;2082280;28;20235;-58
2021/11/23 05:06:54;;;;;;;29.80;26.63;;;;;;;;;;2077947;28;20181;-58
2021/11/23 05:07:55;;;;;;;28.83;25.33;;;;;;;;;;2081168;28;20588;-57
2021/11/23 05:08:56;;;;;;;27.53;24.53;;;;;;;;;;2082674;28;20165;-59
2021/11/23 05:09:56;;;;;;;29.50;23.93;;;;;;;;;;2080301;28;20236;-58
2021/11/23 05:10:57;;;;;;;27.80;23.87;;;;;;;;;;2080179;28;20192;-57
2021/11/23 05:11:57;;;;;;;25.90;21.83;;;;;;;;;;2079399;28;20261;-55
2021/11/23 05:12:57;;;;;;;27.60;24.20;;;;;;;;;;2081821;28;20180;-57
2021/11/23 05:13:58;;;;;;;28.77;24.90;;;;;;;;;;2076617;28;20235;-57
2021/11/23 05:14:58;;;;;;;26.90;23.90;;;;;;;;;;2079313;28;20255;-57
2021/11/23 05:15:58;;;;;;;27.73;24.53;;;;;;;;;;2081494;28;20176;-55
2021/11/23 05:16:58;;;;;;;26.53;23.63;;;;;;;;;;2081126;28;20362;-57
2021/11/23 05:17:59;;;;;;;26.77;23.90;;;;;;;;;;2081569;28;20180;-56
2021/11/23 05:18:59;;;;;;;26.30;23.20;;;;;;;;;;2082418;28;20218;-56
2021/11/23 05:19:59;;;;;;;27.97;23.50;;;;;;;;;;2081527;28;20164;-55
2021/11/23 05:21:00;;;;;;;27.43;23.43;;;;;;;;;;2079864;28;20176;-56
2021/11/23 05:22:00;;;;;;;24.33;21.80;;;;;;;;;;2081435;28;20214;-58
2021/11/23 05:23:00;;;;;;;26.13;21.87;;;;;;;;;;2081174;28;20199;-57
2021/11/23 05:24:01;;;;;;;25.43;22.77;;;;;;;;;;2081416;28;20177;-58
2021/11/23 05:25:01;;;;;;;25.03;22.50;;;;;;;;;;2081021;28;20219;-55
2021/11/23 05:26:02;;;;;;;25.60;21.77;;;;;;;;;;2081633;28;20250;-55
2021/11/23 05:27:02;;;;;;;24.40;21.80;;;;;;;;;;2081926;28;20239;-54
2021/11/23 05:28:03;;;;;;;24.23;21.77;;;;;;;;;;2081317;28;20703;-56
2021/11/23 05:29:04;;;;;;;25.40;22.63;;;;;;;;;;2082685;28;20176;-59
2021/11/23 05:30:05;;;;;;;23.83;21.33;;;;;;;;;;2082547;28;20179;-57
2021/11/23 05:31:08;;;;;;;26.83;22.27;;;;;;;;;;2082021;28;20191;-56
2021/11/23 05:32:08;;;;;;;25.07;21.70;;;;;;;;;;2081045;28;20303;-57
2021/11/23 05:33:08;;;;;;;24.70;21.93;;;;;;;;;;2074642;28;20208;-59
2021/11/23 05:34:09;;;;;;;25.30;22.57;;;;;;;;;;2082462;28;20186;-60
2021/11/23 05:35:09;;;;;;;24.20;21.63;;;;;;;;;;2082149;28;20228;-59
2021/11/23 05:36:10;;;;;;;24.60;21.97;;;;;;;;;;2082011;28;20219;-57
2021/11/23 05:37:11;;;;;;;25.20;21.47;;;;;;;;;;2081839;28;20242;-57
2021/11/23 05:38:11;;;;;;;24.33;21.90;;;;;;;;;;2081936;28;20203;-59
2021/11/23 05:39:11;;;;;;;22.87;20.47;;;;;;;;;;2082458;28;20198;-59
2021/11/23 05:40:12;;;;;;;23.17;20.87;;;;;;;;;;2079465;28;20291;-59
2021/11/23 05:41:12;;;;;;;25.03;22.43;;;;;;;;;;2074881;28;20172;-58
2021/11/23 05:42:13;;;;;;;25.73;22.10;;;;;;;;;;2079582;28;20212;-58
2021/11/23 05:43:13;;;;;;;23.23;20.90;;;;;;;;;;2082231;28;20179;-58
2021/11/23 05:44:14;;;;;;;24.77;21.87;;;;;;;;;;2082218;28;20180;-58
2021/11/23 05:45:14;;;;;;;25.13;21.63;;;;;;;;;;2083049;28;20668;-58
2021/11/23 05:46:14;;;;;;;25.50;22.80;;;;;;;;;;2082162;28;20867;-59
2021/11/23 05:47:15;;;;;;;25.73;23.13;;;;;;;;;;2080010;28;20207;-58
2021/11/23 05:48:15;;;;;;;24.60;22.07;;;;;;;;;;2082411;28;20672;-58
2021/11/23 05:49:17;;;;;;;24.70;22.23;;;;;;;;;;2082891;28;20176;-58
2021/11/23 05:50:17;;;;;;;26.63;23.47;;;;;;;;;;2082597;28;20180;-58
2021/11/23 05:51:17;;;;;;;24.77;22.13;;;;;;;;;;2082999;28;20192;-58
2021/11/23 05:52:18;;;;;;;26.17;22.63;;;;;;;;;;2083422;28;20567;-57
2021/11/23 05:53:19;;;;;;;25.57;22.17;;;;;;;;;;2082307;28;20191;-58
2021/11/23 05:54:19;;;;;;;24.20;21.60;;;;;;;;;;2077150;28;20263;-58
2021/11/23 05:55:19;;;;;;;23.30;20.20;;;;;;;;;;2082135;28;20187;-58
2021/11/23 05:56:20;;;;;;;23.83;20.80;;;;;;;;;;2081920;28;20172;-57
2021/11/23 05:57:21;;;;;;;25.50;22.63;;;;;;;;;;2075423;28;20246;-58